createdAt,value
2022-10-05T00:00:35.283Z,100252.25
2022-10-05T00:01:18.566Z,100256.59
2022-10-05T00:02:06.527Z,100254.97
2022-10-05T00:02:52.196Z,100259.63
2022-10-05T00:03:38.263Z,100253.88
2022-10-05T00:04:25.773Z,100256.59
2022-10-05T00:05:10.713Z,100257.41
2022-10-05T00:05:56.388Z,100254.16
2022-10-05T00:06:45.402Z,100251.94
2022-10-05T00:07:30.646Z,100247.28
2022-10-05T00:08:15.745Z,100246.47
2022-10-05T00:09:03.098Z,100247.56
2022-10-05T00:09:49.044Z,100243.72
2022-10-05T00:10:35.545Z,100243.72
2022-10-05T00:11:25.311Z,100248.09
2022-10-05T00:12:10.271Z,100239.06
2022-10-05T00:12:55.794Z,100243.72
2022-10-05T00:13:40.204Z,100243.50
2022-10-05T00:14:25.958Z,100243.22
2022-10-05T00:15:13.019Z,100239.38
2022-10-05T00:16:02.596Z,100239.38
2022-10-05T00:16:58.990Z,100244.03
2022-10-05T00:17:46.033Z,100237.75
2022-10-05T00:18:30.902Z,100238.25
2022-10-05T00:19:17.546Z,100233.59
2022-10-05T00:20:06.382Z,100228.63
2022-10-05T00:20:51.478Z,100231.66
2022-10-05T00:21:36.262Z,100236.84
2022-10-05T00:22:19.845Z,100231.66
2022-10-05T00:23:08.541Z,100228.94
2022-10-05T00:29:45.151Z,100226.56
2022-10-05T00:30:31.647Z,100233.38
2022-10-05T00:31:16.735Z,100228.72
2022-10-05T00:32:06.473Z,100230.63
2022-10-05T00:32:58.636Z,100226.78
2022-10-05T00:33:45.679Z,100230.63
2022-10-05T00:34:44.903Z,100233.09
2022-10-05T00:35:31.020Z,100225.38
2022-10-05T00:36:20.214Z,100227.31
2022-10-05T00:37:00.964Z,100227.00
2022-10-05T00:37:54.756Z,100226.19
2022-10-05T00:38:41.282Z,100227.31
2022-10-05T00:39:26.555Z,100235.53
2022-10-05T00:40:13.514Z,100232.78
2022-10-05T00:40:58.166Z,100230.03
2022-10-05T00:41:43.739Z,100229.53
2022-10-05T00:42:32.906Z,100227.38
2022-10-05T00:43:20.611Z,100226.78
2022-10-05T00:44:09.456Z,100219.47
2022-10-05T00:44:55.268Z,100224.88
2022-10-05T00:45:44.873Z,100225.47
2022-10-05T00:46:32.823Z,100224.13
2022-10-05T00:47:19.744Z,100221.09
2022-10-05T00:48:07.588Z,100218.66
2022-10-05T00:48:49.421Z,100222.44
2022-10-05T00:49:46.982Z,100218.06
2022-10-05T00:50:32.705Z,100221.63
2022-10-05T00:51:20.316Z,100218.06
2022-10-05T00:53:00.830Z,100217.78
2022-10-05T00:53:50.132Z,100217.25
2022-10-05T00:54:35.899Z,100224.34
2022-10-05T00:55:22.436Z,100225.16
2022-10-05T00:56:08.811Z,100223.84
2022-10-05T00:59:39.441Z,100214.31
2022-10-05T01:00:10.857Z,100216.22
2022-10-05T01:00:42.249Z,100214.91
2022-10-05T01:01:13.725Z,100224.22
2022-10-05T01:01:45.224Z,100221.47
2022-10-05T01:02:16.718Z,100216.81
2022-10-05T01:02:48.205Z,100226.34
2022-10-05T01:03:19.650Z,100220.59
2022-10-05T01:03:51.087Z,100217.03
2022-10-05T01:04:22.539Z,100219.78
2022-10-05T01:04:53.949Z,100217.56
2022-10-05T01:05:25.402Z,100220.81
2022-10-05T01:05:56.835Z,100223.84
2022-10-05T01:06:28.457Z,100220.81
2022-10-05T01:06:59.948Z,100230.94
2022-10-05T01:07:31.545Z,100219.69
2022-10-05T01:08:02.982Z,100226.56
2022-10-05T01:08:34.440Z,100225.53
2022-10-05T01:09:05.909Z,100221.69
2022-10-05T01:09:37.327Z,100232.66
2022-10-05T01:10:08.814Z,100225.25
2022-10-05T01:10:40.284Z,100224.13
2022-10-05T01:11:11.826Z,100226.56
2022-10-05T01:11:43.257Z,100223.31
2022-10-05T01:12:14.787Z,100215.63
2022-10-05T01:12:46.182Z,100218.97
2022-10-05T01:13:17.576Z,100224.44
2022-10-05T01:13:49.025Z,100219.47
2022-10-05T01:14:20.439Z,100223.31
2022-10-05T01:14:51.867Z,100218.97
2022-10-05T01:15:23.298Z,100214.00
2022-10-05T01:15:54.730Z,100215.13
2022-10-05T01:16:26.262Z,100216.75
2022-10-05T01:16:57.685Z,100211.06
2022-10-05T01:17:29.267Z,100211.56
2022-10-05T01:18:00.674Z,100206.38
2022-10-05T01:18:32.174Z,100212.16
2022-10-05T01:19:03.677Z,100208.31
2022-10-05T01:19:35.204Z,100210.75
2022-10-05T01:20:06.603Z,100211.28
2022-10-05T01:20:37.986Z,100203.34
2022-10-05T01:21:09.433Z,100209.34
2022-10-05T01:21:40.812Z,100210.75
2022-10-05T01:22:12.319Z,100212.38
2022-10-05T01:22:43.801Z,100214.31
2022-10-05T01:23:15.331Z,100212.69
2022-10-05T01:23:46.696Z,100207.19
2022-10-05T01:24:18.154Z,100218.16
2022-10-05T01:24:49.661Z,100220.38
2022-10-05T01:25:21.085Z,100211.88
2022-10-05T01:25:52.487Z,100209.94
2022-10-05T01:26:23.908Z,100213.50
2022-10-05T01:26:55.334Z,100211.06
2022-10-05T01:27:26.742Z,100210.75
2022-10-05T01:27:58.263Z,100218.16
2022-10-05T01:28:29.696Z,100216.00
2022-10-05T01:29:01.169Z,100216.81
2022-10-05T01:29:32.712Z,100213.78
2022-10-05T01:30:04.127Z,100206.69
2022-10-05T01:30:35.567Z,100212.69
2022-10-05T01:31:07.026Z,100207.78
2022-10-05T01:31:38.546Z,100207.50
2022-10-05T01:32:10.196Z,100215.41
2022-10-05T01:32:41.797Z,100211.06
2022-10-05T01:33:13.277Z,100207.19
2022-10-05T01:33:44.748Z,100209.94
2022-10-05T01:34:16.155Z,100205.34
2022-10-05T01:34:47.601Z,100208.91
2022-10-05T01:35:19.038Z,100201.00
2022-10-05T01:35:50.449Z,100209.19
2022-10-05T01:36:22.030Z,100207.78
2022-10-05T01:36:53.483Z,100208.41
2022-10-05T01:37:24.923Z,100203.72
2022-10-05T01:37:56.346Z,100198.56
2022-10-05T01:38:27.783Z,100196.94
2022-10-05T01:38:59.188Z,100207.34
2022-10-05T01:39:30.625Z,100192.88
2022-10-05T01:40:02.122Z,100196.72
2022-10-05T01:40:33.639Z,100189.84
2022-10-05T01:41:05.054Z,100196.72
2022-10-05T01:41:36.506Z,100192.06
2022-10-05T01:42:08.032Z,100200.25
2022-10-05T01:42:39.478Z,100192.34
2022-10-05T01:43:10.922Z,100193.75
2022-10-05T01:43:42.457Z,100191.31
2022-10-05T01:44:13.913Z,100195.69
2022-10-05T01:44:45.349Z,100189.41
2022-10-05T01:45:19.781Z,100186.66
2022-10-05T01:45:51.270Z,100189.41
2022-10-05T01:46:22.784Z,100189.09
2022-10-05T01:46:54.271Z,100187.78
2022-10-05T01:47:25.719Z,100192.72
2022-10-05T01:47:57.099Z,100188.59
2022-10-05T01:48:28.546Z,100197.91
2022-10-05T01:49:00.034Z,100188.06
2022-10-05T01:49:31.504Z,100188.38
2022-10-05T01:50:02.922Z,100186.75
2022-10-05T01:50:34.344Z,100191.09
2022-10-05T01:51:05.803Z,100188.06
2022-10-05T01:51:37.223Z,100197.38
2022-10-05T01:52:08.653Z,100188.38
2022-10-05T01:52:40.111Z,100192.22
2022-10-05T01:53:11.557Z,100187.25
2022-10-05T01:53:43.040Z,100186.44
2022-10-05T01:54:14.592Z,100180.97
2022-10-05T01:54:46.022Z,100182.09
2022-10-05T01:55:17.430Z,100179.03
2022-10-05T01:55:48.895Z,100180.16
2022-10-05T01:56:20.431Z,100185.13
2022-10-05T01:56:51.861Z,100183.50
2022-10-05T01:57:23.314Z,100184.59
2022-10-05T01:57:54.836Z,100181.28
2022-10-05T01:58:26.385Z,100183.50
2022-10-05T01:58:57.856Z,100174.16
2022-10-05T01:59:29.399Z,100172.53
2022-10-05T02:00:00.865Z,100172.53
2022-10-05T02:00:32.336Z,100176.69
2022-10-05T02:01:03.893Z,100174.25
2022-10-05T02:01:35.594Z,100172.84
2022-10-05T02:02:07.202Z,100177.19
2022-10-05T02:02:38.734Z,100173.94
2022-10-05T02:03:10.176Z,100173.94
2022-10-05T02:03:41.598Z,100179.72
2022-10-05T02:04:24.421Z,100174.75
2022-10-05T02:05:04.545Z,100168.47
2022-10-05T02:05:35.949Z,100175.88
2022-10-05T02:06:07.473Z,100174.25
2022-10-05T02:06:38.881Z,100170.69
2022-10-05T02:07:10.274Z,100170.19
2022-10-05T02:07:41.799Z,100170.19
2022-10-05T02:08:13.249Z,100168.25
2022-10-05T02:08:44.710Z,100170.69
2022-10-05T02:09:16.213Z,100169.06
2022-10-05T02:09:47.662Z,100171.00
2022-10-05T02:10:19.138Z,100172.91
2022-10-05T02:10:50.588Z,100173.72
2022-10-05T02:11:22.004Z,100166.13
2022-10-05T02:11:53.421Z,100178.97
2022-10-05T02:12:24.821Z,100166.63
2022-10-05T02:12:56.303Z,100168.84
2022-10-05T02:13:27.737Z,100164.50
2022-10-05T02:13:59.138Z,100161.75
2022-10-05T02:14:30.568Z,100161.75
2022-10-05T02:15:02.225Z,100161.75
2022-10-05T02:15:33.909Z,100157.91
2022-10-05T02:16:05.459Z,100160.13
2022-10-05T02:16:36.953Z,100158.22
2022-10-05T02:17:08.376Z,100155.19
2022-10-05T02:17:39.919Z,100146.97
2022-10-05T02:18:11.345Z,100153.25
2022-10-05T02:18:42.747Z,100145.88
2022-10-05T02:19:14.213Z,100146.69
2022-10-05T02:19:45.680Z,100146.97
2022-10-05T02:20:17.235Z,100143.94
2022-10-05T02:20:48.646Z,100144.75
2022-10-05T02:21:20.084Z,100146.38
2022-10-05T02:21:51.526Z,100147.19
2022-10-05T02:22:22.947Z,100147.19
2022-10-05T02:22:54.517Z,100150.22
2022-10-05T02:23:25.923Z,100148.59
2022-10-05T02:23:57.390Z,100143.94
2022-10-05T02:24:28.848Z,100146.69
2022-10-05T02:25:00.320Z,100146.38
2022-10-05T02:25:31.819Z,100146.38
2022-10-05T02:26:03.391Z,100149.13
2022-10-05T02:26:34.847Z,100147.50
2022-10-05T02:27:06.331Z,100144.25
2022-10-05T02:27:37.728Z,100150.22
2022-10-05T02:28:09.188Z,100146.97
2022-10-05T02:28:40.690Z,100142.63
2022-10-05T02:29:12.318Z,100145.06
2022-10-05T02:29:43.722Z,100146.69
2022-10-05T02:30:16.764Z,100145.06
2022-10-05T02:30:48.387Z,100148.31
2022-10-05T02:31:19.913Z,100151.34
2022-10-05T02:31:51.418Z,100145.34
2022-10-05T02:32:22.854Z,100154.66
2022-10-05T02:32:54.310Z,100153.56
2022-10-05T02:33:25.760Z,100155.47
2022-10-05T02:33:57.185Z,100143.44
2022-10-05T02:34:28.610Z,100145.34
2022-10-05T02:35:00.093Z,100141.59
2022-10-05T02:35:31.546Z,100143.72
2022-10-05T02:36:03.032Z,100149.50
2022-10-05T02:36:34.512Z,100146.47
2022-10-05T02:37:05.972Z,100141.59
2022-10-05T02:37:37.454Z,100145.34
2022-10-05T02:38:08.847Z,100152.75
2022-10-05T02:38:40.360Z,100151.13
2022-10-05T02:39:11.811Z,100143.72
2022-10-05T02:39:43.270Z,100153.25
2022-10-05T02:40:14.804Z,100143.94
2022-10-05T02:40:46.257Z,100145.34
2022-10-05T02:41:17.734Z,100146.38
2022-10-05T02:41:49.143Z,100157.31
2022-10-05T02:42:20.582Z,100154.81
2022-10-05T02:42:51.986Z,100154.00
2022-10-05T02:43:23.393Z,100157.84
2022-10-05T02:43:54.877Z,100151.25
2022-10-05T02:44:26.381Z,100148.22
2022-10-05T02:44:57.780Z,100158.34
2022-10-05T02:45:29.203Z,100155.31
2022-10-05T02:46:00.719Z,100156.44
2022-10-05T02:46:32.184Z,100164.94
2022-10-05T02:47:03.789Z,100159.47
2022-10-05T02:47:35.319Z,100164.34
2022-10-05T02:48:06.852Z,100161.59
2022-10-05T02:48:38.255Z,100159.97
2022-10-05T02:49:09.690Z,100159.97
2022-10-05T02:49:41.082Z,100162.41
2022-10-05T02:50:12.480Z,100159.97
2022-10-05T02:50:43.972Z,100155.84
2022-10-05T02:51:15.383Z,100156.34
2022-10-05T02:51:46.885Z,100164.56
2022-10-05T02:52:18.324Z,100162.13
2022-10-05T02:52:49.881Z,100163.22
2022-10-05T02:53:21.438Z,100164.56
2022-10-05T02:53:52.929Z,100164.25
2022-10-05T02:54:24.366Z,100160.41
2022-10-05T02:54:55.802Z,100161.22
2022-10-05T02:55:27.248Z,100162.56
2022-10-05T02:55:58.668Z,100157.69
2022-10-05T02:56:30.184Z,100159.00
2022-10-05T02:57:01.618Z,100160.41
2022-10-05T02:57:33.034Z,100163.16
2022-10-05T02:58:04.451Z,100159.31
2022-10-05T02:58:35.905Z,100154.94
2022-10-05T02:59:07.350Z,100157.91
2022-10-05T02:59:38.725Z,100162.25
2022-10-05T03:00:10.181Z,100157.09
2022-10-05T03:00:41.783Z,100155.97
2022-10-05T03:01:13.325Z,100158.72
2022-10-05T03:01:44.871Z,100158.13
2022-10-05T03:02:16.387Z,100163.88
2022-10-05T03:02:47.852Z,100157.59
2022-10-05T03:03:19.321Z,100161.16
2022-10-05T03:03:50.747Z,100162.56
2022-10-05T03:04:22.175Z,100158.19
2022-10-05T03:04:53.653Z,100154.34
2022-10-05T03:05:25.193Z,100149.19
2022-10-05T03:05:56.659Z,100155.47
2022-10-05T03:06:28.075Z,100157.38
2022-10-05T03:06:59.633Z,100159.53
2022-10-05T03:08:03.703Z,100153.75
2022-10-05T03:08:35.129Z,100155.38
2022-10-05T03:09:06.604Z,100145.84
2022-10-05T03:09:38.073Z,100157.00
2022-10-05T03:10:09.472Z,100154.28
2022-10-05T03:10:40.890Z,100151.03
2022-10-05T03:11:12.313Z,100154.28
2022-10-05T03:11:43.682Z,100159.75
2022-10-05T03:12:15.115Z,100155.91
2022-10-05T03:12:46.514Z,100155.91
2022-10-05T03:13:17.948Z,100155.38
2022-10-05T03:13:49.336Z,100157.00
2022-10-05T03:14:20.781Z,100156.72
2022-10-05T03:14:52.142Z,100153.75
2022-10-05T03:15:23.541Z,100159.75
2022-10-05T03:15:55.046Z,100147.19
2022-10-05T03:16:26.591Z,100151.03
2022-10-05T03:16:57.996Z,100147.25
2022-10-05T03:17:29.538Z,100140.69
2022-10-05T03:18:00.928Z,100141.50
2022-10-05T03:18:32.344Z,100146.66
2022-10-05T03:19:03.735Z,100140.69
2022-10-05T03:19:35.206Z,100137.13
2022-10-05T03:20:06.610Z,100136.91
2022-10-05T03:20:38.022Z,100140.47
2022-10-05T03:21:09.499Z,100138.84
2022-10-05T03:21:40.930Z,100133.66
2022-10-05T03:22:12.569Z,100133.66
2022-10-05T03:22:44.042Z,100130.63
2022-10-05T03:23:15.539Z,100132.25
2022-10-05T03:23:46.981Z,100131.22
2022-10-05T03:24:18.414Z,100132.03
2022-10-05T03:24:49.817Z,100128.19
2022-10-05T03:25:21.233Z,100132.03
2022-10-05T03:25:52.671Z,100132.03
2022-10-05T03:26:24.050Z,100130.41
2022-10-05T03:26:55.501Z,100127.69
2022-10-05T03:27:26.924Z,100134.25
2022-10-05T03:27:58.484Z,100132.34
2022-10-05T03:28:30.028Z,100127.16
2022-10-05T03:29:07.159Z,100131.00
2022-10-05T03:29:38.665Z,100124.44
2022-10-05T03:30:10.056Z,100127.97
2022-10-05T03:30:41.457Z,100121.41
2022-10-05T03:31:12.998Z,100126.94
2022-10-05T03:31:44.511Z,100120.97
2022-10-05T03:32:15.963Z,100116.81
2022-10-05T03:32:47.457Z,100116.81
2022-10-05T03:33:19.050Z,100111.13
2022-10-05T03:33:50.527Z,100117.13
2022-10-05T03:34:23.497Z,100115.72
2022-10-05T03:34:55.067Z,100120.38
2022-10-05T03:35:26.604Z,100117.34
2022-10-05T03:35:58.108Z,100113.19
2022-10-05T03:36:29.509Z,100114.09
2022-10-05T03:37:03.801Z,100113.28
2022-10-05T03:37:35.244Z,100114.38
2022-10-05T03:38:06.740Z,100107.50
2022-10-05T03:38:38.142Z,100112.38
2022-10-05T03:39:09.610Z,100114.00
2022-10-05T03:39:41.039Z,100112.88
2022-10-05T03:40:12.445Z,100114.00
2022-10-05T03:40:43.941Z,100108.00
2022-10-05T03:41:15.375Z,100110.25
2022-10-05T03:41:46.886Z,100111.03
2022-10-05T03:42:18.362Z,100102.03
2022-10-05T03:42:52.480Z,100106.38
2022-10-05T03:43:24.493Z,100098.47
2022-10-05T03:43:55.933Z,100091.91
2022-10-05T03:44:27.364Z,100097.66
2022-10-05T03:44:58.858Z,100094.72
2022-10-05T03:45:30.411Z,100095.03
2022-10-05T03:46:01.905Z,100096.13
2022-10-05T03:46:36.161Z,100097.16
2022-10-05T03:47:07.641Z,100094.94
2022-10-05T03:47:39.090Z,100097.38
2022-10-05T03:48:10.653Z,100093.00
2022-10-05T03:48:43.698Z,100089.47
2022-10-05T03:49:15.134Z,100090.88
2022-10-05T03:49:46.627Z,100090.28
2022-10-05T03:50:18.063Z,100088.97
2022-10-05T03:50:49.440Z,100096.88
2022-10-05T03:51:20.876Z,100082.88
2022-10-05T03:51:52.328Z,100099.81
2022-10-05T03:52:23.737Z,100089.16
2022-10-05T03:52:55.113Z,100088.06
2022-10-05T03:53:27.426Z,100093.22
2022-10-05T03:53:58.925Z,100100.63
2022-10-05T03:54:30.379Z,100090.50
2022-10-05T03:55:01.944Z,100095.97
2022-10-05T03:55:35.627Z,100097.28
2022-10-05T03:56:07.154Z,100094.56
2022-10-05T03:56:38.733Z,100097.00
2022-10-05T03:57:10.163Z,100104.38
2022-10-05T03:57:41.629Z,100095.88
2022-10-05T03:58:13.045Z,100095.06
2022-10-05T03:58:44.561Z,100097.50
2022-10-05T03:59:15.898Z,100091.75
2022-10-05T03:59:50.046Z,100096.09
2022-10-05T04:00:21.467Z,100090.94
2022-10-05T04:00:52.949Z,100092.56
2022-10-05T04:01:24.360Z,100085.47
2022-10-05T04:01:55.845Z,100085.75
2022-10-05T04:02:27.369Z,100090.94
2022-10-05T04:02:58.803Z,100089.00
2022-10-05T04:03:30.250Z,100091.44
2022-10-05T04:04:01.783Z,100095.00
2022-10-05T04:04:33.196Z,100087.88
2022-10-05T04:05:07.494Z,100090.94
2022-10-05T04:05:38.913Z,100089.00
2022-10-05T04:06:10.422Z,100093.38
2022-10-05T04:06:44.124Z,100088.72
2022-10-05T04:07:15.800Z,100083.75
2022-10-05T04:07:47.258Z,100086.47
2022-10-05T04:08:18.669Z,100085.16
2022-10-05T04:08:53.049Z,100086.47
2022-10-05T04:09:27.306Z,100078.66
2022-10-05T04:09:58.754Z,100083.03
2022-10-05T04:10:30.152Z,100080.28
2022-10-05T04:11:01.542Z,100075.94
2022-10-05T04:11:32.958Z,100078.97
2022-10-05T04:12:04.336Z,100078.16
2022-10-05T04:12:35.695Z,100069.13
2022-10-05T04:13:07.100Z,100081.19
2022-10-05T04:13:38.528Z,100078.66
2022-10-05T04:14:09.921Z,100072.69
2022-10-05T04:14:41.341Z,100076.81
2022-10-05T04:15:16.536Z,100079.56
2022-10-05T04:15:50.269Z,100075.28
2022-10-05T04:16:21.783Z,100077.41
2022-10-05T04:16:53.217Z,100079.56
2022-10-05T04:17:24.632Z,100074.69
2022-10-05T04:17:56.127Z,100074.09
2022-10-05T04:18:27.574Z,100076.81
2022-10-05T04:18:58.971Z,100081.19
2022-10-05T04:19:30.438Z,100079.56
2022-10-05T04:20:02.040Z,100076.81
2022-10-05T04:20:33.525Z,100072.16
2022-10-05T04:21:04.936Z,100077.63
2022-10-05T04:21:36.405Z,100082.00
2022-10-05T04:22:07.858Z,100077.34
2022-10-05T04:22:39.282Z,100073.50
2022-10-05T04:23:10.744Z,100074.31
2022-10-05T04:23:42.302Z,100078.16
2022-10-05T04:24:13.729Z,100079.78
2022-10-05T04:24:45.125Z,100074.00
2022-10-05T04:25:16.549Z,100067.22
2022-10-05T04:25:48.030Z,100073.50
2022-10-05T04:26:19.412Z,100076.22
2022-10-05T04:26:50.835Z,100074.31
2022-10-05T04:27:22.303Z,100075.94
2022-10-05T04:27:53.793Z,100077.84
2022-10-05T04:28:28.323Z,100077.25
2022-10-05T04:29:03.360Z,100075.13
2022-10-05T04:29:34.766Z,100073.69
2022-10-05T04:30:06.198Z,100072.88
2022-10-05T04:30:37.741Z,100068.75
2022-10-05T04:31:09.172Z,100073.41
2022-10-05T04:31:40.683Z,100074.44
2022-10-05T04:32:14.978Z,100069.78
2022-10-05T04:32:46.427Z,100075.75
2022-10-05T04:33:17.839Z,100077.38
2022-10-05T04:33:49.303Z,100078.69
2022-10-05T04:34:20.744Z,100075.16
2022-10-05T04:34:52.248Z,100073.22
2022-10-05T04:35:23.699Z,100076.78
2022-10-05T04:35:55.155Z,100074.56
2022-10-05T04:36:26.575Z,100077.28
2022-10-05T04:36:58.113Z,100076.47
2022-10-05T04:37:29.518Z,100078.41
2022-10-05T04:38:00.930Z,100076.47
2022-10-05T04:38:32.312Z,100072.41
2022-10-05T04:39:03.764Z,100073.75
2022-10-05T04:39:35.222Z,100074.56
2022-10-05T04:40:06.758Z,100073.53
2022-10-05T04:40:38.157Z,100074.03
2022-10-05T04:41:09.576Z,100070.78
2022-10-05T04:41:41.017Z,100070.50
2022-10-05T04:42:12.461Z,100077.59
2022-10-05T04:42:43.875Z,100069.38
2022-10-05T04:43:15.314Z,100071.81
2022-10-05T04:43:46.717Z,100072.13
2022-10-05T04:44:18.188Z,100071.00
2022-10-05T04:44:49.620Z,100072.63
2022-10-05T04:45:21.068Z,100065.53
2022-10-05T04:45:52.532Z,100071.00
2022-10-05T04:46:25.696Z,100064.41
2022-10-05T04:46:57.186Z,100062.81
2022-10-05T04:47:28.781Z,100066.13
2022-10-05T04:48:00.236Z,100069.38
2022-10-05T04:48:31.733Z,100069.91
2022-10-05T04:49:03.151Z,100072.63
2022-10-05T04:49:34.597Z,100064.41
2022-10-05T04:50:06.035Z,100067.75
2022-10-05T04:50:37.412Z,100069.38
2022-10-05T04:51:11.665Z,100069.69
2022-10-05T04:51:44.213Z,100068.56
2022-10-05T04:52:17.994Z,100072.72
2022-10-05T04:52:49.402Z,100072.94
2022-10-05T04:53:23.887Z,100074.84
2022-10-05T04:53:55.367Z,100072.13
2022-10-05T04:54:26.828Z,100068.28
2022-10-05T04:54:58.475Z,100075.38
2022-10-05T04:55:29.875Z,100068.78
2022-10-05T04:56:01.318Z,100079.72
2022-10-05T04:56:32.806Z,100071.50
2022-10-05T04:57:04.235Z,100074.56
2022-10-05T04:57:35.633Z,100078.91
2022-10-05T04:58:07.118Z,100080.84
2022-10-05T04:58:42.274Z,100077.81
2022-10-05T04:59:14.021Z,100075.38
2022-10-05T04:59:45.437Z,100072.13
2022-10-05T05:00:16.920Z,100078.41
2022-10-05T05:00:48.416Z,100074.56
2022-10-05T05:01:19.887Z,100079.22
2022-10-05T05:01:54.526Z,100072.13
2022-10-05T05:02:26.004Z,100079.31
2022-10-05T05:02:57.442Z,100075.75
2022-10-05T05:03:28.969Z,100080.13
2022-10-05T05:04:00.465Z,100078.78
2022-10-05T05:04:31.952Z,100074.94
2022-10-05T05:05:03.449Z,100080.41
2022-10-05T05:05:35.604Z,100077.97
2022-10-05T05:06:19.541Z,100081.22
2022-10-05T05:06:52.794Z,100080.72
2022-10-05T05:07:24.181Z,100081.22
2022-10-05T05:07:58.119Z,100082.03
2022-10-05T05:08:29.534Z,100083.44
2022-10-05T05:09:03.218Z,100077.75
2022-10-05T05:09:34.604Z,100079.69
2022-10-05T05:10:06.021Z,100085.47
2022-10-05T05:10:37.424Z,100075.63
2022-10-05T05:11:15.121Z,100082.22
2022-10-05T05:11:48.272Z,100086.06
2022-10-05T05:12:19.725Z,100086.06
2022-10-05T05:12:51.124Z,100084.13
2022-10-05T05:13:25.483Z,100087.16
2022-10-05T05:13:56.946Z,100083.31
2022-10-05T05:14:28.391Z,100091.22
2022-10-05T05:14:59.854Z,100083.63
2022-10-05T05:15:31.207Z,100087.16
2022-10-05T05:16:02.710Z,100084.44
2022-10-05T05:16:36.304Z,100093.75
2022-10-05T05:17:12.285Z,100079.25
2022-10-05T05:17:44.595Z,100091.00
2022-10-05T05:18:16.011Z,100089.69
2022-10-05T05:18:47.533Z,100088.56
2022-10-05T05:19:24.431Z,100086.13
2022-10-05T05:19:55.823Z,100090.50
2022-10-05T05:20:27.258Z,100090.50
2022-10-05T05:20:58.688Z,100089.09
2022-10-05T05:21:30.107Z,100089.38
2022-10-05T05:22:04.373Z,100082.59
2022-10-05T05:22:35.835Z,100093.81
2022-10-05T05:23:07.307Z,100091.09
2022-10-05T05:23:38.741Z,100091.38
2022-10-05T05:24:10.249Z,100092.28
2022-10-05T05:24:41.651Z,100098.28
2022-10-05T05:25:13.088Z,100093.09
2022-10-05T05:25:44.582Z,100096.88
2022-10-05T05:26:16.091Z,100087.34
2022-10-05T05:26:47.768Z,100102.13
2022-10-05T05:27:19.384Z,100088.44
2022-10-05T05:27:50.810Z,100086.81
2022-10-05T05:28:22.291Z,100096.94
2022-10-05T05:28:53.788Z,100086.00
2022-10-05T05:29:25.248Z,100087.13
2022-10-05T05:29:56.716Z,100089.84
2022-10-05T05:30:28.099Z,100092.59
2022-10-05T05:30:59.559Z,100087.63
2022-10-05T05:31:31.161Z,100092.28
2022-10-05T05:32:02.623Z,100074.97
2022-10-05T05:32:34.092Z,100084.59
2022-10-05T05:33:05.496Z,100085.72
2022-10-05T05:33:37.026Z,100086.81
2022-10-05T05:34:08.489Z,100079.13
2022-10-05T05:34:39.905Z,100087.94
2022-10-05T05:35:11.359Z,100080.53
2022-10-05T05:35:42.815Z,100092.59
2022-10-05T05:36:14.222Z,100088.22
2022-10-05T05:36:45.851Z,100090.44
2022-10-05T05:37:17.466Z,100085.19
2022-10-05T05:37:48.888Z,100088.22
2022-10-05T05:38:20.292Z,100095.31
2022-10-05T05:38:51.735Z,100087.94
2022-10-05T05:39:23.217Z,100089.63
2022-10-05T05:39:54.605Z,100092.38
2022-10-05T05:40:25.980Z,100085.19
2022-10-05T05:40:58.964Z,100088.44
2022-10-05T05:41:30.367Z,100084.09
2022-10-05T05:42:01.772Z,100087.94
2022-10-05T05:42:33.196Z,100089.84
2022-10-05T05:43:04.659Z,100088.75
2022-10-05T05:43:36.109Z,100081.94
2022-10-05T05:44:07.556Z,100086.31
2022-10-05T05:44:39.160Z,100086.59
2022-10-05T05:45:10.656Z,100095.09
2022-10-05T05:45:42.092Z,100090.75
2022-10-05T05:46:13.589Z,100088.53
2022-10-05T05:47:03.068Z,100092.88
2022-10-05T05:47:35.729Z,100083.56
2022-10-05T05:48:07.234Z,100085.78
2022-10-05T05:48:38.654Z,100085.78
2022-10-05T05:49:13.119Z,100091.63
2022-10-05T05:49:47.268Z,100088.00
2022-10-05T05:50:18.790Z,100084.75
2022-10-05T05:50:52.800Z,100091.84
2022-10-05T05:51:24.201Z,100092.66
2022-10-05T05:51:58.289Z,100085.06
2022-10-05T05:52:29.686Z,100087.72
2022-10-05T05:53:01.120Z,100083.88
2022-10-05T05:53:32.547Z,100084.16
2022-10-05T05:54:04.061Z,100084.16
2022-10-05T05:54:39.539Z,100077.06
2022-10-05T05:55:10.970Z,100083.34
2022-10-05T05:55:42.355Z,100085.78
2022-10-05T05:56:13.766Z,100084.16
2022-10-05T05:56:45.494Z,100088.00
2022-10-05T05:57:17.139Z,100085.88
2022-10-05T05:57:48.569Z,100089.13
2022-10-05T05:58:19.989Z,100092.97
2022-10-05T05:58:51.386Z,100086.38
2022-10-05T05:59:22.831Z,100093.78
2022-10-05T05:59:54.233Z,100089.94
2022-10-05T06:00:25.672Z,100089.63
2022-10-05T06:00:57.102Z,100086.38
2022-10-05T06:01:35.490Z,100084.97
2022-10-05T06:02:07.229Z,100079.81
2022-10-05T06:02:38.877Z,100084.97
2022-10-05T06:03:10.560Z,100091.84
2022-10-05T06:03:43.865Z,100087.72
2022-10-05T06:04:15.283Z,100089.63
2022-10-05T06:04:46.710Z,100088.81
2022-10-05T06:05:18.095Z,100091.03
2022-10-05T06:05:52.299Z,100089.41
2022-10-05T06:06:23.738Z,100089.41
2022-10-05T06:06:55.222Z,100099.84
2022-10-05T06:07:30.379Z,100094.97
2022-10-05T06:08:02.372Z,100093.03
2022-10-05T06:08:33.785Z,100085.34
2022-10-05T06:09:05.222Z,100086.16
2022-10-05T06:09:36.645Z,100091.63
2022-10-05T06:10:08.027Z,100086.75
2022-10-05T06:10:39.453Z,100087.56
2022-10-05T06:11:10.898Z,100086.47
2022-10-05T06:11:42.278Z,100089.19
2022-10-05T06:12:13.705Z,100087.78
2022-10-05T06:12:45.120Z,100088.91
2022-10-05T06:13:16.486Z,100081.50
2022-10-05T06:13:47.939Z,100088.59
2022-10-05T06:14:19.379Z,100086.38
2022-10-05T06:14:53.180Z,100088.31
2022-10-05T06:15:24.586Z,100089.72
2022-10-05T06:15:57.552Z,100085.88
2022-10-05T06:16:29.080Z,100083.66
2022-10-05T06:17:00.542Z,100084.75
2022-10-05T06:17:32.012Z,100089.63
2022-10-05T06:18:03.511Z,100087.78
2022-10-05T06:18:34.911Z,100086.47
2022-10-05T06:19:06.374Z,100085.88
2022-10-05T06:19:37.777Z,100093.47
2022-10-05T06:20:09.314Z,100085.56
2022-10-05T06:20:40.755Z,100088.31
2022-10-05T06:21:12.204Z,100095.69
2022-10-05T06:21:46.652Z,100091.63
2022-10-05T06:22:23.854Z,100090.00
2022-10-05T06:22:55.307Z,100090.81
2022-10-05T06:23:26.730Z,100090.22
2022-10-05T06:23:58.168Z,100091.13
2022-10-05T06:24:29.596Z,100100.66
2022-10-05T06:25:00.980Z,100094.06
2022-10-05T06:25:35.165Z,100097.91
2022-10-05T06:26:10.523Z,100085.56
2022-10-05T06:26:42.407Z,100093.78
2022-10-05T06:27:13.863Z,100093.56
2022-10-05T06:27:45.281Z,100091.63
2022-10-05T06:28:16.835Z,100094.66
2022-10-05T06:28:48.260Z,100089.19
2022-10-05T06:29:19.665Z,100088.09